createdAt,value
2022-09-06T00:01:10.916Z,100141.44
2022-09-06T00:03:40.145Z,100136.41
2022-09-06T00:06:09.962Z,100140.16
2022-09-06T00:08:37.899Z,100130.56
2022-09-06T00:11:05.893Z,100137.03
2022-09-06T00:13:33.937Z,100131.88
2022-09-06T00:16:07.135Z,100126.38
2022-09-06T00:18:34.893Z,100128.38
2022-09-06T00:21:04.018Z,100128.69
2022-09-06T00:23:34.257Z,100124.28
2022-09-06T00:26:05.654Z,100124.69
2022-09-06T00:28:33.425Z,100128.34
2022-09-06T00:31:10.246Z,100123.63
2022-09-06T00:33:38.611Z,100123.41
2022-09-06T00:36:08.041Z,100122.47
2022-09-06T00:38:35.949Z,100127.19
2022-09-06T00:41:03.686Z,100113.19
2022-09-06T00:43:31.361Z,100112.72
2022-09-06T00:45:59.217Z,100116.84
2022-09-06T00:48:27.195Z,100117.22
2022-09-06T00:50:57.392Z,100122.16
2022-09-06T00:53:27.278Z,100119.00
2022-09-06T00:55:55.146Z,100109.59
2022-09-06T00:58:23.395Z,100099.84
2022-09-06T01:00:54.191Z,100102.34
2022-09-06T01:03:23.015Z,100098.81
2022-09-06T01:05:58.906Z,100095.53
2022-09-06T01:08:38.805Z,100097.16
2022-09-06T01:11:23.465Z,100105.28
2022-09-06T01:13:57.123Z,100108.44
2022-09-06T01:16:31.186Z,100107.75
2022-09-06T01:19:15.324Z,100111.41
2022-09-06T01:21:48.242Z,100096.59
2022-09-06T01:24:44.267Z,100098.00
2022-09-06T01:27:56.335Z,100096.97
2022-09-06T01:30:25.886Z,100085.03
2022-09-06T01:32:57.714Z,100088.00
2022-09-06T01:35:29.587Z,100084.47
2022-09-06T01:37:58.006Z,100078.13
2022-09-06T01:40:26.109Z,100072.94
2022-09-06T01:42:54.295Z,100072.47
2022-09-06T01:45:27.233Z,100076.09
2022-09-06T01:48:03.405Z,100082.22
2022-09-06T01:50:44.409Z,100080.34
2022-09-06T01:53:25.501Z,100071.91
2022-09-06T01:55:58.277Z,100075.66
2022-09-06T01:58:53.410Z,100076.00
2022-09-06T02:01:28.441Z,100072.00
2022-09-06T02:04:00.665Z,100065.78
2022-09-06T02:06:30.869Z,100064.16
2022-09-06T02:09:03.044Z,100067.44
2022-09-06T02:11:35.311Z,100072.47
2022-09-06T02:14:07.425Z,100068.16
2022-09-06T02:16:40.720Z,100067.66
2022-09-06T02:19:13.589Z,100074.00
2022-09-06T02:21:45.207Z,100069.44
2022-09-06T02:24:16.721Z,100071.31
2022-09-06T02:26:45.064Z,100061.91
2022-09-06T02:29:12.986Z,100063.53
2022-09-06T02:31:44.539Z,100059.09
2022-09-06T02:34:15.150Z,100069.56
2022-09-06T02:36:42.934Z,100066.59
2022-09-06T02:39:11.007Z,100062.03
2022-09-06T02:41:39.700Z,100069.78
2022-09-06T02:44:07.437Z,100065.66
2022-09-06T02:46:35.045Z,100061.81
2022-09-06T02:49:04.325Z,100070.13
2022-09-06T02:51:32.107Z,100066.28
2022-09-06T02:53:59.789Z,100062.13
2022-09-06T02:56:27.485Z,100061.22
2022-09-06T02:58:55.485Z,100061.09
2022-09-06T03:01:25.406Z,100055.59
2022-09-06T03:03:53.226Z,100057.22
2022-09-06T03:06:22.446Z,100060.16
2022-09-06T03:08:50.501Z,100054.28
2022-09-06T03:11:18.544Z,100054.19
2022-09-06T03:13:46.295Z,100049.56
2022-09-06T03:16:14.488Z,100055.22
2022-09-06T03:18:42.170Z,100057.94
2022-09-06T03:21:09.854Z,100052.28
2022-09-06T03:23:39.852Z,100046.66
2022-09-06T03:26:07.642Z,100035.38
2022-09-06T03:28:35.391Z,100041.47
2022-09-06T03:31:03.142Z,100041.13
2022-09-06T03:33:31.035Z,100044.06
2022-09-06T03:36:00.421Z,100041.28
2022-09-06T03:38:29.457Z,100055.13
2022-09-06T03:40:58.797Z,100098.81
2022-09-06T03:43:27.281Z,100066.47
2022-09-06T03:45:57.216Z,100057.06
2022-09-06T03:48:26.744Z,100071.66
2022-09-06T03:50:56.057Z,100057.09
2022-09-06T03:53:24.749Z,100065.09
2022-09-06T03:55:54.191Z,100056.16
2022-09-06T03:58:25.041Z,100054.75
2022-09-06T04:01:01.325Z,100052.59
2022-09-06T04:03:29.050Z,100061.94
2022-09-06T04:05:56.748Z,100056.19
2022-09-06T04:08:27.696Z,100053.22
2022-09-06T04:10:56.013Z,100044.63
2022-09-06T04:13:25.430Z,100038.59
2022-09-06T04:15:53.415Z,100036.00
2022-09-06T04:18:22.368Z,100038.31
2022-09-06T04:20:51.355Z,100040.16
2022-09-06T04:23:20.078Z,100026.47
2022-09-06T04:25:48.645Z,100027.69
2022-09-06T04:28:18.248Z,100033.53
2022-09-06T04:30:53.133Z,100027.03
2022-09-06T04:33:21.155Z,100031.28
2022-09-06T04:35:50.586Z,100032.88
2022-09-06T04:38:18.249Z,100030.06
2022-09-06T04:40:45.894Z,100027.00
2022-09-06T04:43:13.842Z,100035.00
2022-09-06T04:45:42.363Z,100036.19
2022-09-06T04:48:11.635Z,100031.47
2022-09-06T04:50:39.379Z,100036.97
2022-09-06T04:53:07.666Z,100046.94
2022-09-06T04:55:36.045Z,100045.44
2022-09-06T04:58:04.514Z,100059.97
2022-09-06T05:00:33.503Z,100054.56
2022-09-06T05:03:01.219Z,100074.16
2022-09-06T05:05:30.261Z,100063.72
2022-09-06T05:07:58.254Z,100061.84
2022-09-06T05:10:27.072Z,100066.66
2022-09-06T05:12:55.392Z,100056.94
2022-09-06T05:15:24.229Z,100063.69
2022-09-06T05:17:51.967Z,100061.75
2022-09-06T05:20:19.777Z,100057.69
2022-09-06T05:22:55.107Z,100047.88
2022-09-06T05:25:22.867Z,100059.00
2022-09-06T05:27:50.610Z,100059.72
2022-09-06T05:30:19.637Z,100048.16
2022-09-06T05:32:47.337Z,100062.53
2022-09-06T05:35:15.010Z,100071.25
2022-09-06T05:37:42.717Z,100074.09
2022-09-06T05:40:12.358Z,100076.72
2022-09-06T05:42:40.979Z,100079.47
2022-09-06T05:45:09.198Z,100079.47
2022-09-06T05:47:36.864Z,100081.44
2022-09-06T05:50:05.051Z,100086.28
2022-09-06T05:52:33.849Z,100086.84
2022-09-06T05:55:02.276Z,100081.81
2022-09-06T05:57:31.318Z,100090.50
2022-09-06T05:59:59.227Z,100088.28
2022-09-06T06:02:26.993Z,100101.31
2022-09-06T06:04:55.477Z,100095.44
2022-09-06T06:07:23.200Z,100095.22
2022-09-06T06:09:50.952Z,100091.91
2022-09-06T06:12:18.665Z,100105.56
2022-09-06T06:14:47.781Z,100095.69
2022-09-06T06:17:16.268Z,100101.03
2022-09-06T06:19:43.970Z,100099.47
2022-09-06T06:22:11.669Z,100090.50
2022-09-06T06:24:39.626Z,100082.81
2022-09-06T06:27:07.445Z,100093.31
2022-09-06T06:29:35.143Z,100098.31
2022-09-06T06:32:04.904Z,100098.41
2022-09-06T06:34:32.608Z,100093.31
2022-09-06T06:37:00.348Z,100096.34
2022-09-06T06:39:28.134Z,100100.75
2022-09-06T06:41:55.902Z,100109.66
2022-09-06T06:44:46.502Z,100105.91
2022-09-06T06:47:15.938Z,100103.03
2022-09-06T06:49:43.555Z,100107.72
2022-09-06T06:52:11.794Z,100102.47
2022-09-06T06:54:39.412Z,100102.81
2022-09-06T06:57:09.322Z,100105.25
2022-09-06T06:59:37.006Z,100109.50
2022-09-06T07:02:04.778Z,100108.56
2022-09-06T07:04:33.937Z,100105.16
2022-09-06T07:12:37.593Z,100101.53
2022-09-06T07:15:06.306Z,100098.19
2022-09-06T07:17:34.606Z,100095.84
2022-09-06T07:22:39.134Z,100093.69
2022-09-06T07:25:08.276Z,100094.38
2022-09-06T07:27:51.320Z,100089.47
2022-09-06T07:30:19.981Z,100097.81
2022-09-06T07:32:48.065Z,100096.84
2022-09-06T07:35:17.356Z,100104.47
2022-09-06T07:37:45.038Z,100100.88
2022-09-06T07:40:12.825Z,100097.31
2022-09-06T07:42:40.677Z,100095.03
2022-09-06T07:45:09.526Z,100105.09
2022-09-06T07:53:26.015Z,100104.69
2022-09-06T07:55:58.048Z,100106.81
2022-09-06T07:58:25.927Z,100104.00
2022-09-06T08:00:53.680Z,100107.97
2022-09-06T08:03:21.423Z,100098.38
2022-09-06T08:06:08.465Z,100100.53
2022-09-06T08:11:25.339Z,100083.69
2022-09-06T08:13:55.574Z,100079.38
2022-09-06T08:16:24.339Z,100083.56
2022-09-06T08:18:53.463Z,100080.66
2022-09-06T08:21:24.474Z,100067.38
2022-09-06T08:23:53.320Z,100067.56
2022-09-06T08:26:22.406Z,100067.88
2022-09-06T08:28:54.249Z,100064.19
2022-09-06T08:31:21.970Z,100068.41
2022-09-06T08:33:49.750Z,100077.81
2022-09-06T08:36:17.446Z,100073.63
2022-09-06T08:38:46.630Z,100069.00
2022-09-06T08:41:24.822Z,100066.25
2022-09-06T08:46:53.331Z,100065.41
2022-09-06T08:49:21.234Z,100063.84
2022-09-06T08:52:21.551Z,100060.41
2022-09-06T08:54:56.418Z,100055.22
2022-09-06T08:57:40.241Z,100052.75
2022-09-06T09:00:11.257Z,100045.41
2022-09-06T09:02:44.769Z,100035.31
2022-09-06T09:05:20.925Z,100031.75
2022-09-06T09:07:53.975Z,100034.63
2022-09-06T09:10:27.122Z,100041.66
2022-09-06T09:12:54.965Z,100041.25
2022-09-06T09:15:22.887Z,100045.47
2022-09-06T09:17:51.895Z,100037.84
2022-09-06T09:20:20.114Z,100046.41
2022-09-06T09:22:47.888Z,100046.38
2022-09-06T09:25:19.993Z,100039.75
2022-09-06T09:27:50.200Z,100047.41
2022-09-06T09:33:22.289Z,100038.19
2022-09-06T09:35:50.210Z,100038.16
2022-09-06T09:38:21.816Z,100025.16
2022-09-06T09:40:54.510Z,100020.88
2022-09-06T09:43:25.457Z,100021.94
2022-09-06T09:46:11.380Z,100023.34
2022-09-06T09:48:39.820Z,100018.94
2022-09-06T09:51:26.536Z,100014.16
2022-09-06T09:53:56.695Z,100011.28
2022-09-06T09:56:40.292Z,100009.44
2022-09-06T09:59:20.415Z,100013.59
2022-09-06T10:01:48.567Z,100012.19
2022-09-06T10:07:10.427Z,100011.31
2022-09-06T10:09:39.685Z,100012.22
2022-09-06T10:12:07.598Z,100012.13
2022-09-06T10:14:41.924Z,100007.50
2022-09-06T10:17:09.830Z,100012.13
2022-09-06T10:19:40.946Z,100010.53
2022-09-06T10:22:24.648Z,100011.78
2022-09-06T10:25:22.445Z,100006.41
2022-09-06T10:28:12.144Z,100016.72
2022-09-06T10:30:45.903Z,100002.63
2022-09-06T10:33:22.648Z,100009.97
2022-09-06T10:35:50.277Z,100000.28
2022-09-06T10:38:32.422Z,99990.22
2022-09-06T10:41:11.519Z,99994.91
2022-09-06T10:43:43.975Z,99986.91
2022-09-06T10:46:18.620Z,99986.97
2022-09-06T10:48:46.890Z,99986.69
2022-09-06T10:51:18.875Z,99984.75
2022-09-06T10:53:50.620Z,99982.13
2022-09-06T10:56:22.152Z,99987.34
2022-09-06T11:01:46.792Z,99983.63
2022-09-06T11:04:20.169Z,99976.50
2022-09-06T11:06:52.311Z,99981.97
2022-09-06T11:09:24.653Z,99977.00
2022-09-06T11:11:59.632Z,99980.31
2022-09-06T11:14:29.261Z,99979.63
2022-09-06T11:17:02.073Z,99971.63
2022-09-06T11:19:33.555Z,99973.50
2022-09-06T11:22:28.573Z,99972.25
2022-09-06T11:25:18.704Z,99975.25
2022-09-06T11:27:48.021Z,99981.97
2022-09-06T11:30:16.893Z,99976.06
2022-09-06T11:32:48.875Z,99971.81
2022-09-06T11:35:23.838Z,99968.44
2022-09-06T11:38:00.378Z,99966.75
2022-09-06T11:40:29.604Z,99973.31
2022-09-06T11:43:16.113Z,99969.75
2022-09-06T11:45:49.938Z,99970.31
2022-09-06T11:48:37.366Z,99968.31
2022-09-06T11:51:10.937Z,99969.09
2022-09-06T11:54:17.895Z,99970.19
2022-09-06T11:56:54.372Z,99967.94
2022-09-06T11:59:31.060Z,99973.09
2022-09-06T12:02:03.541Z,99971.28
2022-09-06T12:05:09.370Z,99973.28
2022-09-06T12:07:39.001Z,99966.69
2022-09-06T12:10:45.222Z,99968.63
2022-09-06T12:13:34.445Z,99963.72
2022-09-06T12:16:02.125Z,99954.88
2022-09-06T12:18:55.401Z,99950.50
2022-09-06T12:21:35.300Z,99939.25
2022-09-06T12:24:05.264Z,99948.50
2022-09-06T12:26:55.637Z,99946.09
2022-09-06T12:29:26.447Z,99951.50
2022-09-06T12:31:55.762Z,99956.31
2022-09-06T12:34:25.282Z,99947.44
2022-09-06T12:36:56.377Z,99949.41
2022-09-06T12:39:25.599Z,99951.59
2022-09-06T12:41:56.558Z,99932.56
2022-09-06T12:44:33.059Z,99934.69
2022-09-06T12:47:09.003Z,99934.75
2022-09-06T12:49:36.623Z,99932.13
2022-09-06T12:52:09.197Z,99932.56
2022-09-06T12:54:45.417Z,99930.53
2022-09-06T12:57:14.897Z,99918.59
2022-09-06T12:59:48.777Z,99913.88
2022-09-06T13:02:19.219Z,99914.03
2022-09-06T13:04:48.846Z,99916.38
2022-09-06T13:07:18.789Z,99910.50
2022-09-06T13:09:51.890Z,99911.78
2022-09-06T13:12:26.206Z,99906.16
2022-09-06T13:14:55.099Z,99905.41
2022-09-06T13:17:27.558Z,99899.91
2022-09-06T13:19:55.325Z,99898.38
2022-09-06T13:22:40.525Z,99895.25
2022-09-06T13:25:20.345Z,99893.38
2022-09-06T13:27:51.020Z,99891.00
2022-09-06T13:30:33.552Z,99894.88
2022-09-06T13:33:01.445Z,99887.03
2022-09-06T13:35:30.920Z,99883.00
2022-09-06T13:38:20.922Z,99884.31
2022-09-06T13:41:11.606Z,99875.69
2022-09-06T13:43:43.273Z,99880.84
2022-09-06T13:46:11.925Z,99882.84
2022-09-06T13:48:40.564Z,99883.94
2022-09-06T13:51:08.809Z,99886.03
2022-09-06T13:53:36.993Z,99881.41
2022-09-06T13:56:08.783Z,99881.44
2022-09-06T13:58:36.858Z,99879.59
2022-09-06T14:01:08.449Z,99878.03
2022-09-06T14:03:37.345Z,99880.47
2022-09-06T14:06:05.341Z,99881.28
2022-09-06T14:08:49.702Z,99879.53
2022-09-06T14:11:23.229Z,99877.94
2022-09-06T14:13:50.864Z,99880.22
2022-09-06T14:16:18.550Z,99877.38
2022-09-06T14:18:46.285Z,99881.81
2022-09-06T14:21:14.094Z,99869.72
2022-09-06T14:23:42.102Z,99878.59
2022-09-06T14:26:10.349Z,99878.66
2022-09-06T14:28:39.305Z,99873.88
2022-09-06T14:31:13.807Z,99880.72
2022-09-06T14:33:41.625Z,99866.38
2022-09-06T14:36:11.040Z,99878.28
2022-09-06T14:38:39.949Z,99869.84
2022-09-06T14:41:09.588Z,99875.00
2022-09-06T14:43:39.054Z,99870.59
2022-09-06T14:46:07.962Z,99872.50
2022-09-06T14:48:39.208Z,99865.41
2022-09-06T14:51:10.760Z,99863.00
2022-09-06T14:53:41.993Z,99859.19
2022-09-06T14:56:10.473Z,99844.72
2022-09-06T14:58:40.158Z,99848.66
2022-09-06T15:01:09.916Z,99847.44
2022-09-06T15:03:37.494Z,99845.25
2022-09-06T15:06:05.713Z,99832.22
2022-09-06T15:08:33.593Z,99833.69
2022-09-06T15:11:01.494Z,99838.59
2022-09-06T15:13:29.375Z,99828.88
2022-09-06T15:15:58.487Z,99828.94
2022-09-06T15:18:26.138Z,99831.47
2022-09-06T15:20:53.736Z,99821.91
2022-09-06T15:23:25.194Z,99826.28
2022-09-06T15:25:54.056Z,99816.53
2022-09-06T15:28:21.841Z,99817.22
2022-09-06T15:30:50.109Z,99819.00
2022-09-06T15:33:19.305Z,99816.34
2022-09-06T15:35:54.509Z,99809.94
2022-09-06T15:38:24.141Z,99809.22
2022-09-06T15:40:51.949Z,99810.50
2022-09-06T15:43:19.907Z,99800.28
2022-09-06T15:45:49.374Z,99811.50
2022-09-06T15:48:18.946Z,99806.75
2022-09-06T15:50:51.626Z,99795.59
2022-09-06T15:53:19.603Z,99806.47
2022-09-06T15:55:59.110Z,99801.94
2022-09-06T15:58:27.573Z,99789.00
2022-09-06T16:01:02.754Z,99789.44
2022-09-06T16:03:31.943Z,99797.00
2022-09-06T16:08:58.290Z,99787.63
2022-09-06T16:11:26.224Z,99788.91
2022-09-06T16:13:54.180Z,99787.97
2022-09-06T16:16:22.521Z,99782.00
2022-09-06T16:18:52.032Z,99771.50
2022-09-06T16:21:21.534Z,99776.69
2022-09-06T16:23:50.843Z,99774.72
2022-09-06T16:26:21.480Z,99782.03
2022-09-06T16:28:50.283Z,99780.44
2022-09-06T16:31:18.821Z,99781.00
2022-09-06T16:33:48.607Z,99783.53
2022-09-06T16:36:18.545Z,99787.03
2022-09-06T16:38:46.569Z,99786.81
2022-09-06T16:41:15.546Z,99786.81
2022-09-06T16:43:43.510Z,99778.50
2022-09-06T16:46:11.772Z,99782.53
2022-09-06T16:48:40.447Z,99780.94
2022-09-06T16:51:12.882Z,99778.69
2022-09-06T16:53:43.835Z,99788.16
2022-09-06T16:56:12.508Z,99783.53
2022-09-06T16:58:41.685Z,99791.41
2022-09-06T17:01:09.655Z,99793.44
2022-09-06T17:03:37.547Z,99793.88
2022-09-06T17:06:06.203Z,99793.25
2022-09-06T17:08:34.325Z,99795.03
2022-09-06T17:11:03.913Z,99786.84
2022-09-06T17:13:32.087Z,99794.47
2022-09-06T17:16:21.921Z,99793.91
2022-09-06T17:18:50.108Z,99799.25
2022-09-06T17:21:17.741Z,99795.75
2022-09-06T17:23:45.313Z,99797.28
2022-09-06T17:26:14.405Z,99805.78
2022-09-06T17:28:42.089Z,99803.19
2022-09-06T17:31:09.856Z,99802.69
2022-09-06T17:33:37.867Z,99798.34
2022-09-06T17:36:11.538Z,99801.69
2022-09-06T17:38:39.251Z,99799.66
2022-09-06T17:41:07.217Z,99797.53
2022-09-06T17:43:37.726Z,99798.19
2022-09-06T17:46:05.671Z,99801.31
2022-09-06T17:48:33.493Z,99807.03
2022-09-06T17:51:06.924Z,99802.41
2022-09-06T17:53:34.838Z,99805.41
2022-09-06T17:56:04.904Z,99803.78
2022-09-06T17:58:32.593Z,99813.06
2022-09-06T18:01:04.571Z,99814.13
2022-09-06T18:03:32.849Z,99817.41
2022-09-06T18:06:05.052Z,99813.28
2022-09-06T18:08:32.846Z,99818.47
2022-09-06T18:11:00.489Z,99821.41
2022-09-06T18:13:28.251Z,99819.13
2022-09-06T18:15:55.882Z,99818.28
2022-09-06T18:18:24.907Z,99815.41
2022-09-06T18:20:52.866Z,99821.59
2022-09-06T18:23:20.637Z,99815.25
2022-09-06T18:25:56.877Z,99819.25
2022-09-06T18:28:25.069Z,99819.50
2022-09-06T18:30:53.982Z,99808.78
2022-09-06T18:33:24.906Z,99818.72
2022-09-06T18:35:52.958Z,99808.06
2022-09-06T18:38:20.687Z,99819.16
2022-09-06T18:40:52.919Z,99821.00
2022-09-06T18:43:20.666Z,99832.13
2022-09-06T18:45:48.347Z,99823.03
2022-09-06T18:48:16.584Z,99818.28
2022-09-06T18:50:45.700Z,99822.28
2022-09-06T18:53:14.705Z,99831.72
2022-09-06T18:55:43.313Z,99833.56
2022-09-06T18:58:13.082Z,99825.34
2022-09-06T19:00:42.142Z,99832.78
2022-09-06T19:03:10.237Z,99826.50
2022-09-06T19:05:38.272Z,99821.53
2022-09-06T19:08:07.541Z,99824.41
2022-09-06T19:10:35.343Z,99831.09
2022-09-06T19:13:02.949Z,99835.25
2022-09-06T19:15:30.606Z,99838.78
2022-09-06T19:17:58.305Z,99836.53
2022-09-06T19:20:25.888Z,99847.03
2022-09-06T19:22:53.537Z,99837.44
2022-09-06T19:25:22.677Z,99839.06
2022-09-06T19:27:50.350Z,99848.31
2022-09-06T19:30:19.772Z,99837.63
2022-09-06T19:32:47.499Z,99844.31
2022-09-06T19:35:15.361Z,99839.38
2022-09-06T19:37:43.477Z,99841.69
2022-09-06T19:40:11.837Z,99843.66
2022-09-06T19:42:40.903Z,99836.25
2022-09-06T19:45:09.711Z,99838.78
2022-09-06T19:47:37.352Z,99825.78
2022-09-06T19:50:06.237Z,99828.97
2022-09-06T19:52:33.928Z,99818.03
2022-09-06T19:55:01.540Z,99810.91
2022-09-06T19:57:29.159Z,99814.09
2022-09-06T19:59:58.150Z,99808.97
2022-09-06T20:02:26.276Z,99807.09
2022-09-06T20:04:53.972Z,99796.97
2022-09-06T20:07:21.653Z,99802.38
2022-09-06T20:09:52.383Z,99796.97
2022-09-06T20:12:20.841Z,99791.16
2022-09-06T20:14:48.401Z,99794.81
2022-09-06T20:17:33.466Z,99792.28
2022-09-06T20:20:01.978Z,99787.94
2022-09-06T20:22:29.574Z,99788.50
2022-09-06T20:24:57.202Z,99777.03
2022-09-06T20:27:25.081Z,99784.03
2022-09-06T20:29:52.642Z,99776.75
2022-09-06T20:32:21.621Z,99775.84
2022-09-06T20:34:49.181Z,99766.78
2022-09-06T20:37:16.806Z,99766.44
2022-09-06T20:39:44.421Z,99766.66
2022-09-06T20:42:12.010Z,99750.75
2022-09-06T20:44:39.612Z,99754.72
2022-09-06T20:47:07.289Z,99751.56
2022-09-06T20:49:36.365Z,99743.69
2022-09-06T20:52:04.205Z,99739.25
2022-09-06T20:54:32.822Z,99739.16
2022-09-06T20:57:00.621Z,99741.75
2022-09-06T20:59:28.265Z,99747.47
2022-09-06T21:01:55.866Z,99750.53
2022-09-06T21:04:23.528Z,99754.16
2022-09-06T21:06:52.653Z,99749.84
2022-09-06T21:09:20.247Z,99754.41
2022-09-06T21:11:47.902Z,99756.28
2022-09-06T21:14:15.578Z,99754.97
2022-09-06T21:16:43.338Z,99751.25
2022-09-06T21:19:12.128Z,99751.94
2022-09-06T21:21:40.593Z,99748.56
2022-09-06T21:24:10.678Z,99746.06
2022-09-06T21:26:38.551Z,99732.28
2022-09-06T21:29:06.374Z,99728.75
2022-09-06T21:31:36.020Z,99728.28
2022-09-06T21:34:07.156Z,99726.63
2022-09-06T21:36:37.572Z,99731.53
2022-09-06T21:39:06.546Z,99735.41
2022-09-06T21:41:35.563Z,99731.56
2022-09-06T21:44:05.025Z,99739.63
2022-09-06T21:46:34.170Z,99739.88
2022-09-06T21:49:03.745Z,99735.53
2022-09-06T21:51:31.705Z,99727.44
2022-09-06T21:53:59.806Z,99731.78
2022-09-06T21:56:27.534Z,99734.50
2022-09-06T21:58:58.375Z,99727.91
2022-09-06T22:01:28.092Z,99744.31
2022-09-06T22:03:56.169Z,99727.19
2022-09-06T22:06:25.788Z,99734.25
2022-09-06T22:08:54.035Z,99733.53
2022-09-06T22:11:23.447Z,99729.78
2022-09-06T22:13:51.415Z,99724.41
2022-09-06T22:16:22.610Z,99735.88
2022-09-06T22:18:51.399Z,99735.41
2022-09-06T22:21:21.364Z,99727.56
2022-09-06T22:23:52.731Z,99733.88
2022-09-06T22:26:20.751Z,99728.59
2022-09-06T22:28:48.795Z,99731.56
2022-09-06T22:31:16.479Z,99740.81
2022-09-06T22:33:45.510Z,99732.50
2022-09-06T22:36:13.175Z,99723.94
2022-09-06T22:38:40.801Z,99721.94
2022-09-06T22:41:09.238Z,99730.03
2022-09-06T22:43:36.947Z,99737.03
2022-09-06T22:46:05.561Z,99729.69
2022-09-06T22:48:33.307Z,99726.41
2022-09-06T22:51:02.753Z,99724.50
2022-09-06T22:53:31.127Z,99730.03
2022-09-06T22:55:58.770Z,99728.03
2022-09-06T22:58:27.837Z,99716.78
2022-09-06T23:00:56.084Z,99721.69
2022-09-06T23:03:24.118Z,99717.25
2022-09-06T23:05:51.865Z,99715.59
2022-09-06T23:08:20.869Z,99708.22
2022-09-06T23:10:48.794Z,99704.59
2022-09-06T23:13:17.238Z,99696.41
2022-09-06T23:15:46.368Z,99703.19
2022-09-06T23:18:14.567Z,99689.81
2022-09-06T23:20:42.163Z,99691.38
2022-09-06T23:23:09.780Z,99681.06
2022-09-06T23:25:39.238Z,99676.47
2022-09-06T23:28:07.026Z,99683.75
2022-09-06T23:30:37.805Z,99677.28
2022-09-06T23:33:05.851Z,99678.38
2022-09-06T23:35:33.447Z,99684.66
2022-09-06T23:38:01.074Z,99672.59
2022-09-06T23:40:28.661Z,99674.88
2022-09-06T23:42:57.749Z,99671.34
2022-09-06T23:45:25.507Z,99665.00
2022-09-06T23:47:53.086Z,99677.53
2022-09-06T23:50:20.941Z,99680.34
2022-09-06T23:52:49.082Z,99676.25
2022-09-06T23:55:16.833Z,99678.69
2022-09-06T23:57:44.464Z,99674.94
